Terminal Aerodrome Forecast
Issued by NWS Charleston, WV

Current Version | Previous Version | Graphics & Text | Print | Product List | Glossary On
Versions: 1 2 3 4 5 6 7 8 9 10 11 12 13 14 15 16 17 18 19 20 21 22 23 24 25 26 27 28 29 30
000
FTUS41 KRLX 211722
TAFEKN
TAF
KEKN 211722Z 2118/2218 VRB03KT 3SM BR BKN005
     FM212000 29004KT P6SM BKN015
     FM212200 30005KT P6SM BKN025
     FM220600 29004KT P6SM BKN030
     FM220700 29004KT P6SM SCT025
     FM221200 28008KT P6SM FEW040
     FM221500 28012KT P6SM FEW150=

USA.gov is the U.S. government's official web portal to all federal, state and local government web resources and services.